createdAt,value
2022-08-02T00:01:16.445Z,5.20
2022-08-02T00:03:20.135Z,4.60
2022-08-02T00:05:23.871Z,4.80
2022-08-02T00:07:27.500Z,4.63
2022-08-02T00:09:31.099Z,5.00
2022-08-02T00:11:34.808Z,5.43
2022-08-02T00:13:38.515Z,5.23
2022-08-02T00:15:41.984Z,5.60
2022-08-02T00:17:46.429Z,4.93
2022-08-02T00:19:50.941Z,4.83
2022-08-02T00:21:54.516Z,4.80
2022-08-02T00:24:28.169Z,5.37
2022-08-02T00:26:03.767Z,5.23
2022-08-02T00:28:07.354Z,4.70
2022-08-02T00:30:12.504Z,5.07
2022-08-02T00:32:16.086Z,4.77
2022-08-02T00:34:30.379Z,5.33
2022-08-02T00:36:25.106Z,4.17
2022-08-02T00:38:28.783Z,5.60
2022-08-02T00:40:32.248Z,5.00
2022-08-02T00:42:35.874Z,5.03
2022-08-02T00:44:39.473Z,4.90
2022-08-02T00:46:43.202Z,4.00
2022-08-02T00:48:46.840Z,3.93
2022-08-02T00:50:50.994Z,4.13
2022-08-02T00:52:54.584Z,3.60
2022-08-02T00:54:58.192Z,4.23
2022-08-02T00:57:01.748Z,4.07
2022-08-02T00:59:05.383Z,4.53
2022-08-02T01:01:09.042Z,4.30
2022-08-02T01:03:12.622Z,4.13
2022-08-02T01:05:16.627Z,4.77
2022-08-02T01:07:20.382Z,4.33
2022-08-02T01:09:23.949Z,4.00
2022-08-02T01:11:28.054Z,4.73
2022-08-02T01:13:31.711Z,4.50
2022-08-02T01:17:56.944Z,4.27
2022-08-02T01:20:05.557Z,4.10
2022-08-02T01:22:59.453Z,4.97
2022-08-02T01:24:56.460Z,3.57
2022-08-02T01:27:04.874Z,4.23
2022-08-02T01:29:11.515Z,4.20
2022-08-02T01:31:19.384Z,4.20
2022-08-02T01:33:25.287Z,4.87
2022-08-02T01:35:47.355Z,4.10
2022-08-02T01:37:42.975Z,5.07
2022-08-02T01:39:49.452Z,3.80
2022-08-02T01:41:58.867Z,4.53
2022-08-02T01:44:01.577Z,4.87
2022-08-02T01:46:06.976Z,4.27
2022-08-02T01:48:12.421Z,5.17
2022-08-02T01:50:19.656Z,4.67
2022-08-02T01:52:26.413Z,4.50
2022-08-02T01:54:32.793Z,5.17
2022-08-02T01:56:37.473Z,4.57
2022-08-02T01:58:43.488Z,3.70
2022-08-02T02:00:48.352Z,4.33
2022-08-02T02:05:13.883Z,5.83
2022-08-02T02:07:18.703Z,4.40
2022-08-02T02:09:25.095Z,3.90
2022-08-02T02:12:05.157Z,4.73
2022-08-02T02:13:36.275Z,4.20
2022-08-02T02:15:43.394Z,4.60
2022-08-02T02:17:52.738Z,4.60
2022-08-02T02:19:57.340Z,4.57
2022-08-02T02:22:01.586Z,4.87
2022-08-02T02:24:11.881Z,5.33
2022-08-02T02:26:14.917Z,4.63
2022-08-02T02:28:24.053Z,4.90
2022-08-02T02:30:29.764Z,4.90
2022-08-02T02:32:35.012Z,4.50
2022-08-02T02:34:41.844Z,4.30
2022-08-02T02:36:50.341Z,5.27
2022-08-02T02:38:55.701Z,5.10
2022-08-02T02:41:01.721Z,5.00
2022-08-02T02:43:06.308Z,4.60
2022-08-02T02:45:12.327Z,4.63
2022-08-02T02:47:18.161Z,5.67
2022-08-02T02:49:23.120Z,4.50
2022-08-02T02:51:27.408Z,4.77
2022-08-02T02:54:31.987Z,5.93
2022-08-02T02:55:38.293Z,5.47
2022-08-02T02:57:42.187Z,5.50
2022-08-02T02:59:49.678Z,4.40
2022-08-02T03:01:55.401Z,4.33
2022-08-02T03:04:01.276Z,4.17
2022-08-02T03:06:15.296Z,5.90
2022-08-02T03:08:10.677Z,4.70
2022-08-02T03:10:14.159Z,5.00
2022-08-02T03:12:20.069Z,5.30
2022-08-02T03:14:23.462Z,5.07
2022-08-02T03:16:27.856Z,4.80
2022-08-02T03:18:32.267Z,5.40
2022-08-02T03:20:36.025Z,5.00
2022-08-02T03:22:39.552Z,4.93
2022-08-02T03:24:43.162Z,5.03
2022-08-02T03:26:46.771Z,5.57
2022-08-02T03:28:50.312Z,5.73
2022-08-02T03:30:53.918Z,5.00
2022-08-02T03:32:57.537Z,4.80
2022-08-02T03:35:01.730Z,6.37
2022-08-02T03:37:05.603Z,5.70
2022-08-02T03:39:09.484Z,5.47
2022-08-02T03:41:16.492Z,5.43
2022-08-02T03:43:20.583Z,4.83
2022-08-02T03:45:25.685Z,5.10
2022-08-02T03:47:29.499Z,5.30
2022-08-02T03:49:33.140Z,5.90
2022-08-02T03:51:36.843Z,5.83
2022-08-02T03:53:41.026Z,5.10
2022-08-02T03:55:45.193Z,4.87
2022-08-02T03:57:49.207Z,4.73
2022-08-02T03:59:52.812Z,5.93
2022-08-02T04:01:56.388Z,5.63
2022-08-02T04:03:59.992Z,5.70
2022-08-02T04:06:04.897Z,4.93
2022-08-02T04:08:35.821Z,4.97
2022-08-02T04:10:14.207Z,5.77
2022-08-02T04:12:17.792Z,5.40
2022-08-02T04:14:21.645Z,5.50
2022-08-02T04:18:48.926Z,5.97
2022-08-02T04:20:53.349Z,4.80
2022-08-02T04:23:00.377Z,5.27
2022-08-02T04:25:06.892Z,4.93
2022-08-02T04:27:50.869Z,5.27
2022-08-02T04:29:19.472Z,4.70
2022-08-02T04:31:23.448Z,5.80
2022-08-02T04:33:27.227Z,5.63
2022-08-02T04:35:30.936Z,4.60
2022-08-02T04:37:35.019Z,5.73
2022-08-02T04:39:38.584Z,6.10
2022-08-02T04:41:44.671Z,5.40
2022-08-02T04:43:48.269Z,7.17
2022-08-02T04:45:53.960Z,5.13
2022-08-02T04:48:05.830Z,5.60
2022-08-02T04:50:03.056Z,5.47
2022-08-02T04:52:06.825Z,6.60
2022-08-02T04:54:11.455Z,5.00
2022-08-02T04:56:15.042Z,5.93
2022-08-02T04:58:39.410Z,5.50
2022-08-02T05:00:24.891Z,4.97
2022-08-02T05:02:28.432Z,5.50
2022-08-02T05:04:32.002Z,5.60
2022-08-02T05:06:35.614Z,6.03
2022-08-02T05:08:39.175Z,5.17
2022-08-02T05:10:42.775Z,6.13
2022-08-02T05:12:46.227Z,5.37
2022-08-02T05:14:50.088Z,7.40
2022-08-02T05:16:58.867Z,5.97
2022-08-02T05:19:02.937Z,7.20
2022-08-02T05:21:06.741Z,6.17
2022-08-02T05:23:10.331Z,5.40
2022-08-02T05:25:14.136Z,5.27
2022-08-02T05:27:21.894Z,6.00
2022-08-02T05:29:23.085Z,5.43
2022-08-02T05:31:26.671Z,4.80
2022-08-02T05:33:30.364Z,5.33
2022-08-02T05:35:34.587Z,5.10
2022-08-02T05:37:38.204Z,5.27
2022-08-02T05:39:55.862Z,4.73
2022-08-02T05:41:48.308Z,4.90
2022-08-02T05:43:51.928Z,5.30
2022-08-02T05:45:55.508Z,6.93
2022-08-02T05:48:00.304Z,7.83
2022-08-02T05:50:07.764Z,5.90
2022-08-02T05:52:16.054Z,5.57
2022-08-02T05:54:22.228Z,5.43
2022-08-02T05:56:29.568Z,6.43
2022-08-02T06:00:55.768Z,4.93
2022-08-02T06:03:07.734Z,5.60
2022-08-02T06:05:12.645Z,5.93
2022-08-02T06:07:18.274Z,5.17
2022-08-02T06:09:26.964Z,5.00
2022-08-02T06:11:34.904Z,4.50
2022-08-02T06:13:38.777Z,5.13
2022-08-02T06:15:53.451Z,4.13
2022-08-02T06:17:48.534Z,4.00
2022-08-02T06:19:57.049Z,4.50
2022-08-02T06:22:33.475Z,4.37
2022-08-02T06:24:10.537Z,6.13
2022-08-02T06:26:15.020Z,4.50
2022-08-02T06:28:19.980Z,4.27
2022-08-02T06:30:23.674Z,4.13
2022-08-02T06:32:27.556Z,4.17
2022-08-02T06:34:31.190Z,3.77
2022-08-02T06:36:39.483Z,4.33
2022-08-02T06:38:51.203Z,4.60
2022-08-02T06:40:55.796Z,4.57
2022-08-02T06:43:08.695Z,4.33
2022-08-02T06:45:14.697Z,4.30
2022-08-02T06:47:19.772Z,4.30
2022-08-02T06:49:23.431Z,3.97
2022-08-02T06:51:27.475Z,4.37
2022-08-02T06:53:31.353Z,3.97
2022-08-02T06:55:42.834Z,3.77
2022-08-02T06:57:40.752Z,4.27
2022-08-02T06:59:44.358Z,5.27
2022-08-02T07:01:47.860Z,4.27
2022-08-02T07:03:51.417Z,4.30
2022-08-02T07:05:54.991Z,4.50
2022-08-02T07:07:58.620Z,4.40
2022-08-02T07:10:02.148Z,5.77
2022-08-02T07:12:06.688Z,5.97
2022-08-02T07:14:10.264Z,4.53
2022-08-02T07:16:13.860Z,5.30
2022-08-02T07:18:17.314Z,5.23
2022-08-02T07:20:20.823Z,6.10
2022-08-02T07:22:26.284Z,4.37
2022-08-02T07:24:29.877Z,5.67
2022-08-02T07:26:41.331Z,4.93
2022-08-02T07:28:38.888Z,5.20
2022-08-02T07:30:42.899Z,5.33
2022-08-02T07:32:46.345Z,5.13
2022-08-02T07:34:52.570Z,5.10
2022-08-02T07:36:56.565Z,6.10
2022-08-02T07:39:00.222Z,6.40
2022-08-02T07:41:03.767Z,7.23
2022-08-02T07:43:07.672Z,6.97
2022-08-02T07:45:12.441Z,5.60
2022-08-02T07:47:15.989Z,6.93
2022-08-02T07:49:19.620Z,5.57
2022-08-02T07:51:23.344Z,7.40
2022-08-02T07:53:30.568Z,6.00
2022-08-02T07:55:40.383Z,7.77
2022-08-02T07:57:42.532Z,7.23
2022-08-02T07:59:46.000Z,6.30
2022-08-02T08:01:49.903Z,5.70
2022-08-02T08:03:53.538Z,6.67
2022-08-02T08:05:57.323Z,7.00
2022-08-02T08:08:01.386Z,5.97
2022-08-02T08:10:06.487Z,8.10
2022-08-02T08:12:11.291Z,6.00
2022-08-02T08:14:16.982Z,5.47
2022-08-02T08:16:20.832Z,5.53
2022-08-02T08:18:24.455Z,4.80
2022-08-02T08:20:28.228Z,4.47
2022-08-02T08:22:31.802Z,5.50
2022-08-02T08:24:35.288Z,5.23
2022-08-02T08:26:39.651Z,4.63
2022-08-02T08:28:44.044Z,4.20
2022-08-02T08:30:47.580Z,4.20
2022-08-02T08:32:51.273Z,5.00
2022-08-02T08:34:54.838Z,5.47
2022-08-02T08:36:58.428Z,5.17
2022-08-02T08:39:02.505Z,4.20
2022-08-02T08:41:06.108Z,5.30
2022-08-02T08:43:13.667Z,5.67
2022-08-02T08:45:17.846Z,6.40
2022-08-02T08:47:34.008Z,5.00
2022-08-02T08:49:39.593Z,5.37
2022-08-02T08:51:46.613Z,4.90
2022-08-02T08:53:52.777Z,5.40
2022-08-02T08:58:17.092Z,4.87
2022-08-02T09:00:21.015Z,4.83
2022-08-02T09:02:28.088Z,5.17
2022-08-02T09:04:30.895Z,4.40
2022-08-02T09:06:34.461Z,5.00
2022-08-02T09:08:38.039Z,5.17
2022-08-02T09:10:43.515Z,5.20
2022-08-02T09:12:51.461Z,4.77
2022-08-02T09:14:55.012Z,4.30
2022-08-02T09:17:08.119Z,3.87
2022-08-02T09:19:22.033Z,4.60
2022-08-02T09:21:34.868Z,4.10
2022-08-02T09:23:39.892Z,4.50
2022-08-02T09:25:58.995Z,4.10
2022-08-02T09:28:00.378Z,4.67
2022-08-02T09:30:12.048Z,3.97
2022-08-02T09:32:12.887Z,4.80
2022-08-02T09:34:19.874Z,4.27
2022-08-02T09:36:23.738Z,4.37
2022-08-02T09:38:27.585Z,5.00
2022-08-02T09:40:36.607Z,5.33
2022-08-02T09:42:47.535Z,5.80
2022-08-02T09:44:55.048Z,4.97
2022-08-02T09:46:58.536Z,5.60
2022-08-02T09:51:22.909Z,5.03
2022-08-02T09:53:26.622Z,5.37
2022-08-02T09:55:30.449Z,5.33
2022-08-02T09:57:35.995Z,4.90
2022-08-02T09:59:41.449Z,5.67
2022-08-02T10:04:03.217Z,6.23
2022-08-02T10:06:08.219Z,5.07
2022-08-02T10:08:12.085Z,6.67
2022-08-02T10:10:15.716Z,6.03
2022-08-02T10:12:20.424Z,5.40
2022-08-02T10:16:40.472Z,6.37
2022-08-02T10:18:44.354Z,4.93
2022-08-02T10:20:49.856Z,5.50
2022-08-02T10:22:56.456Z,5.00
2022-08-02T10:25:01.957Z,4.87
2022-08-02T10:27:08.993Z,4.70
2022-08-02T10:29:16.733Z,5.10
2022-08-02T10:31:24.054Z,5.20
2022-08-02T10:33:29.334Z,5.10
2022-08-02T10:35:36.475Z,4.90
2022-08-02T10:37:41.427Z,5.43
2022-08-02T10:41:59.574Z,5.20
2022-08-02T10:44:03.208Z,4.83
2022-08-02T10:49:38.061Z,5.23
2022-08-02T10:51:18.990Z,5.80
2022-08-02T10:53:29.396Z,5.63
2022-08-02T10:55:45.525Z,5.40
2022-08-02T10:57:53.457Z,4.90
2022-08-02T10:59:58.641Z,4.60
2022-08-02T11:02:04.666Z,5.27
2022-08-02T11:04:10.609Z,5.37
2022-08-02T11:06:25.335Z,5.53
2022-08-02T11:08:21.703Z,5.73
2022-08-02T11:10:37.083Z,5.90
2022-08-02T11:12:59.519Z,5.10
2022-08-02T11:15:07.638Z,5.10
2022-08-02T11:17:15.367Z,5.40
2022-08-02T11:19:19.809Z,5.43
2022-08-02T11:21:24.472Z,5.80
2022-08-02T11:23:44.379Z,5.23
2022-08-02T11:26:03.371Z,5.00
2022-08-02T11:27:50.037Z,5.37
2022-08-02T11:29:54.900Z,4.90
2022-08-02T11:31:58.885Z,4.70
2022-08-02T11:34:07.829Z,4.87
2022-08-02T11:36:09.806Z,4.37
2022-08-02T11:38:20.771Z,4.93
2022-08-02T11:40:24.395Z,5.03
2022-08-02T11:42:33.531Z,4.87
2022-08-02T11:44:44.143Z,5.27
2022-08-02T11:46:55.519Z,5.47
2022-08-02T11:49:01.185Z,4.50
2022-08-02T11:53:21.144Z,5.00
2022-08-02T11:55:28.700Z,5.07
2022-08-02T11:58:03.671Z,5.50
2022-08-02T11:59:39.039Z,6.43
2022-08-02T12:01:45.957Z,4.77
2022-08-02T12:03:50.250Z,5.87
2022-08-02T12:06:05.006Z,4.83
2022-08-02T12:07:59.794Z,4.80
2022-08-02T12:10:09.122Z,5.57
2022-08-02T12:12:12.908Z,6.00
2022-08-02T12:14:17.090Z,5.90
2022-08-02T12:16:38.788Z,5.80
2022-08-02T12:19:07.157Z,4.93
2022-08-02T12:21:23.700Z,5.50
2022-08-02T12:23:27.973Z,6.27
2022-08-02T12:25:34.383Z,5.87
2022-08-02T12:27:40.473Z,6.47
2022-08-02T12:29:58.686Z,5.80
2022-08-02T12:31:55.947Z,7.33
2022-08-02T12:33:55.547Z,6.47
2022-08-02T12:35:59.136Z,6.73
2022-08-02T12:38:10.002Z,5.27
2022-08-02T12:40:25.360Z,5.70
2022-08-02T12:42:27.448Z,4.97
2022-08-02T12:44:31.004Z,5.00
2022-08-02T12:46:35.672Z,5.33
2022-08-02T12:48:52.165Z,4.57
2022-08-02T12:53:07.445Z,5.63
2022-08-02T12:55:20.050Z,4.90
2022-08-02T12:57:24.560Z,5.57
2022-08-02T12:59:39.501Z,5.97
2022-08-02T13:01:45.052Z,5.60
2022-08-02T13:04:09.409Z,6.50
2022-08-02T13:05:57.524Z,4.73
2022-08-02T13:08:00.230Z,5.50
2022-08-02T13:10:04.516Z,4.40
2022-08-02T13:12:09.115Z,4.80
2022-08-02T13:14:14.193Z,5.97
2022-08-02T13:16:17.848Z,6.43
2022-08-02T13:18:23.405Z,7.00
2022-08-02T13:20:27.405Z,6.67
2022-08-02T13:22:30.946Z,6.27
2022-08-02T13:26:52.808Z,6.77
2022-08-02T13:28:57.519Z,6.43
2022-08-02T13:31:20.586Z,5.30
2022-08-02T13:33:08.359Z,5.80
2022-08-02T13:35:18.275Z,5.30
2022-08-02T13:37:19.203Z,5.70
2022-08-02T13:39:24.804Z,5.37
2022-08-02T13:41:28.684Z,5.17
2022-08-02T13:43:52.793Z,5.77
2022-08-02T13:45:38.903Z,6.53
2022-08-02T13:48:03.345Z,5.33
2022-08-02T13:52:06.482Z,5.37
2022-08-02T13:54:10.194Z,5.93
2022-08-02T13:56:15.296Z,5.10
2022-08-02T13:58:19.923Z,5.20
2022-08-02T14:00:35.366Z,5.53
2022-08-02T14:04:45.290Z,5.13
2022-08-02T14:06:49.260Z,6.63
2022-08-02T14:08:54.194Z,10.57
2022-08-02T14:13:16.807Z,6.73
2022-08-02T14:15:22.924Z,5.97
2022-08-02T14:17:27.059Z,6.20
2022-08-02T14:19:30.704Z,4.23
2022-08-02T14:21:46.982Z,7.33
2022-08-02T14:23:49.289Z,6.03
2022-08-02T14:25:46.396Z,4.73
2022-08-02T14:27:49.904Z,4.90
2022-08-02T14:29:53.934Z,3.63
2022-08-02T14:34:12.997Z,4.07
2022-08-02T14:36:27.647Z,5.17
2022-08-02T14:38:22.155Z,6.10
2022-08-02T14:40:31.459Z,5.00
2022-08-02T14:42:32.061Z,5.23
2022-08-02T14:44:35.700Z,6.73
2022-08-02T14:46:40.813Z,5.00
2022-08-02T14:48:44.813Z,5.57
2022-08-02T14:50:48.461Z,6.77
2022-08-02T14:52:52.046Z,5.80
2022-08-02T14:54:56.908Z,5.07
2022-08-02T14:59:18.614Z,6.17
2022-08-02T15:01:25.925Z,4.93
2022-08-02T15:03:29.621Z,4.93
2022-08-02T15:05:33.138Z,5.10
2022-08-02T15:07:41.896Z,5.60
2022-08-02T15:09:42.061Z,5.00
2022-08-02T15:14:03.655Z,5.53
2022-08-02T15:16:08.649Z,6.07
2022-08-02T15:18:13.764Z,5.20
2022-08-02T15:20:25.308Z,5.30
2022-08-02T15:22:22.747Z,5.10
2022-08-02T15:24:26.924Z,6.17
2022-08-02T15:26:30.533Z,5.23
2022-08-02T15:28:35.008Z,5.17
2022-08-02T15:30:38.833Z,4.90
2022-08-02T15:32:52.878Z,4.50
2022-08-02T15:34:48.391Z,4.30
2022-08-02T15:36:52.229Z,4.53
2022-08-02T15:38:56.903Z,4.10
2022-08-02T15:41:03.776Z,3.70
2022-08-02T15:43:07.470Z,3.57
2022-08-02T15:45:13.286Z,5.07
2022-08-02T15:47:17.886Z,4.93
2022-08-02T15:49:23.037Z,4.37
2022-08-02T15:51:26.549Z,4.60
2022-08-02T15:53:30.234Z,4.20
2022-08-02T15:55:39.974Z,4.73
2022-08-02T15:57:39.398Z,4.30
2022-08-02T15:59:42.952Z,4.97
2022-08-02T16:01:48.179Z,4.67
2022-08-02T16:03:51.932Z,3.93
2022-08-02T16:05:55.551Z,4.10
2022-08-02T16:07:59.223Z,4.10
2022-08-02T16:10:03.812Z,4.03
2022-08-02T16:12:08.068Z,4.47
2022-08-02T16:14:11.728Z,4.33
2022-08-02T16:16:15.176Z,4.47
2022-08-02T16:18:19.133Z,3.67
2022-08-02T16:20:23.144Z,3.83
2022-08-02T16:22:26.882Z,4.93
2022-08-02T16:24:31.095Z,4.37
2022-08-02T16:26:35.189Z,5.03
2022-08-02T16:28:39.051Z,4.70
2022-08-02T16:30:54.185Z,5.00
2022-08-02T16:35:07.902Z,4.10
2022-08-02T16:37:10.359Z,4.50
2022-08-02T16:39:14.086Z,5.00
2022-08-02T16:41:18.015Z,4.17
2022-08-02T16:43:21.949Z,4.77
2022-08-02T16:45:25.793Z,4.37
2022-08-02T16:47:43.499Z,4.77
2022-08-02T16:50:04.900Z,4.90
2022-08-02T16:51:40.503Z,4.60
2022-08-02T16:56:01.090Z,4.80
2022-08-02T16:58:04.780Z,4.80
2022-08-02T17:00:12.160Z,4.80
2022-08-02T17:02:18.353Z,5.30
2022-08-02T17:04:21.037Z,4.37
2022-08-02T17:08:31.891Z,5.30
2022-08-02T17:12:52.971Z,5.47
2022-08-02T17:14:56.589Z,4.57
2022-08-02T17:17:01.867Z,4.20
2022-08-02T17:19:05.659Z,4.40
2022-08-02T17:21:10.849Z,6.37
2022-08-02T17:27:55.613Z,6.00
2022-08-02T17:29:58.180Z,5.40
2022-08-02T17:32:05.353Z,6.00
2022-08-02T17:34:06.953Z,4.50
2022-08-02T17:36:10.640Z,5.80
2022-08-02T17:38:17.856Z,5.00
2022-08-02T17:40:21.736Z,5.70
2022-08-02T17:42:28.369Z,4.63
2022-08-02T17:44:37.287Z,5.63
2022-08-02T17:46:37.629Z,5.43
2022-08-02T17:50:57.032Z,5.00
2022-08-02T17:53:01.415Z,4.80
2022-08-02T17:55:07.976Z,5.13
2022-08-02T17:57:11.889Z,4.90
2022-08-02T17:59:22.565Z,3.70
2022-08-02T18:01:29.976Z,3.33
2022-08-02T18:03:35.940Z,3.30
2022-08-02T18:05:53.137Z,3.10
2022-08-02T18:07:53.132Z,3.37
2022-08-02T18:09:53.499Z,4.80
2022-08-02T18:11:58.364Z,4.27
2022-08-02T18:16:21.167Z,4.80
2022-08-02T18:18:29.805Z,4.97
2022-08-02T18:20:28.435Z,4.27
2022-08-02T18:22:32.148Z,4.90
2022-08-02T18:24:36.862Z,6.87
2022-08-02T18:26:43.581Z,4.80
2022-08-02T18:28:47.189Z,4.90
2022-08-02T18:30:50.945Z,5.40
2022-08-02T18:33:57.502Z,5.70
2022-08-02T18:35:01.484Z,5.50
2022-08-02T18:37:06.503Z,4.90
2022-08-02T18:39:10.180Z,5.03
2022-08-02T18:41:13.971Z,5.27
2022-08-02T18:43:17.560Z,4.60
2022-08-02T18:45:21.716Z,5.70
2022-08-02T18:47:25.324Z,4.63
2022-08-02T18:51:36.907Z,6.17
2022-08-02T18:53:42.135Z,4.70
2022-08-02T18:55:59.879Z,4.43
2022-08-02T18:57:51.514Z,4.93
2022-08-02T18:59:57.025Z,4.83
2022-08-02T19:02:00.779Z,4.53
2022-08-02T19:04:05.377Z,6.40
2022-08-02T19:06:10.718Z,4.83
2022-08-02T19:10:36.262Z,5.57
2022-08-02T19:14:57.965Z,6.60
2022-08-02T19:17:53.089Z,5.00
2022-08-02T19:19:06.948Z,5.93
2022-08-02T19:21:10.453Z,6.47
2022-08-02T19:25:35.431Z,5.90
2022-08-02T19:27:40.703Z,5.43
2022-08-02T19:32:02.373Z,6.00
2022-08-02T19:34:07.987Z,7.27
2022-08-02T19:36:12.104Z,5.90
2022-08-02T19:40:32.691Z,8.90
2022-08-02T19:44:52.582Z,6.83
2022-08-02T19:46:58.277Z,5.93
2022-08-02T19:49:16.432Z,7.40
2022-08-02T19:51:07.782Z,7.17
2022-08-02T19:56:01.435Z,6.20
2022-08-02T19:57:34.472Z,5.83
2022-08-02T19:59:38.256Z,6.50
2022-08-02T20:01:48.467Z,6.20
2022-08-02T20:03:52.375Z,7.87
2022-08-02T20:05:55.033Z,6.60
2022-08-02T20:07:58.640Z,6.60
2022-08-02T20:10:02.172Z,6.30
2022-08-02T20:14:26.952Z,5.13
2022-08-02T20:18:46.748Z,5.60
2022-08-02T20:23:32.819Z,5.80
2022-08-02T20:25:19.968Z,6.10
2022-08-02T20:27:28.482Z,5.30
2022-08-02T20:29:45.114Z,6.23
2022-08-02T20:31:35.646Z,6.07
2022-08-02T20:33:56.034Z,5.57
2022-08-02T20:35:47.222Z,7.03
2022-08-02T20:37:59.155Z,5.83
2022-08-02T20:39:56.913Z,5.17
2022-08-02T20:42:06.139Z,7.90
2022-08-02T20:44:06.354Z,6.07
2022-08-02T20:46:11.792Z,4.80
2022-08-02T20:48:15.535Z,5.27
2022-08-02T20:50:37.349Z,6.43
2022-08-02T20:54:57.257Z,7.00
2022-08-02T20:57:00.995Z,7.07
2022-08-02T20:59:16.027Z,6.53
2022-08-02T21:01:11.773Z,7.37
2022-08-02T21:03:16.246Z,6.83
2022-08-02T21:05:44.022Z,8.93
2022-08-02T21:07:27.239Z,7.00
2022-08-02T21:09:52.605Z,7.53
2022-08-02T21:11:38.025Z,7.23
2022-08-02T21:13:47.062Z,6.90
2022-08-02T21:15:47.996Z,6.27
2022-08-02T21:17:52.524Z,7.53
2022-08-02T21:19:57.200Z,7.20
2022-08-02T21:22:02.001Z,6.23
2022-08-02T21:26:25.918Z,7.57
2022-08-02T21:28:35.015Z,6.57
2022-08-02T21:30:35.245Z,7.00
2022-08-02T21:32:38.928Z,7.30
2022-08-02T21:34:42.855Z,7.83
2022-08-02T21:36:46.509Z,7.60
2022-08-02T21:38:50.116Z,9.60
2022-08-02T21:40:55.337Z,7.40
2022-08-02T21:42:59.478Z,6.03
2022-08-02T21:47:25.040Z,5.63
2022-08-02T21:50:09.712Z,6.00
2022-08-02T21:51:36.074Z,7.93
2022-08-02T21:53:41.967Z,8.20
2022-08-02T21:57:51.564Z,9.20
2022-08-02T21:59:55.685Z,7.87
2022-08-02T22:02:00.685Z,9.47
2022-08-02T22:04:04.981Z,8.13
2022-08-02T22:06:10.538Z,7.77
2022-08-02T22:08:14.232Z,8.33
2022-08-02T22:10:19.569Z,7.80
2022-08-02T22:12:26.499Z,9.33
2022-08-02T22:14:29.128Z,10.43
2022-08-02T22:16:35.282Z,10.30
2022-08-02T22:18:40.358Z,9.73
2022-08-02T22:20:45.475Z,8.87
2022-08-02T22:24:55.735Z,9.33
2022-08-02T22:27:00.249Z,11.17
2022-08-02T22:29:05.807Z,8.03
2022-08-02T22:31:10.707Z,8.77
2022-08-02T22:33:34.244Z,5.40
2022-08-02T22:38:16.482Z,5.40
2022-08-02T22:40:08.540Z,5.27
2022-08-02T22:42:07.836Z,5.73
2022-08-02T22:44:11.577Z,6.27
2022-08-02T22:46:16.696Z,6.97
2022-08-02T22:48:20.863Z,5.63
2022-08-02T22:50:27.038Z,5.83
2022-08-02T22:52:31.881Z,5.70
2022-08-02T22:54:35.576Z,5.67
2022-08-02T22:58:49.135Z,4.90
2022-08-02T22:58:59.211Z,6.23
2022-08-02T22:59:03.803Z,7.83
2022-08-02T22:59:12.564Z,8.87
2022-08-02T23:01:04.673Z,8.07
2022-08-02T23:03:08.751Z,7.83
2022-08-02T23:05:12.332Z,7.10
2022-08-02T23:07:16.444Z,6.43
2022-08-02T23:09:21.472Z,7.00
2022-08-02T23:11:26.186Z,7.60
2022-08-02T23:16:01.976Z,6.90
2022-08-02T23:18:23.648Z,8.00
2022-08-02T23:22:49.320Z,7.63
2022-08-02T23:24:54.863Z,8.10
2022-08-02T23:27:02.228Z,7.80
2022-08-02T23:29:19.895Z,8.27
2022-08-02T23:34:03.803Z,7.20
2022-08-02T23:35:52.826Z,7.87
2022-08-02T23:37:59.349Z,8.03
2022-08-02T23:40:02.534Z,7.73
2022-08-02T23:42:06.711Z,9.20
2022-08-02T23:44:14.121Z,10.70
2022-08-02T23:46:15.832Z,8.07
2022-08-02T23:48:19.475Z,5.87
2022-08-02T23:50:23.531Z,9.50
2022-08-02T23:54:46.796Z,7.57
2022-08-02T23:56:51.452Z,6.87
2022-08-02T23:58:55.071Z,6.43
